createdAt,value
2022-09-15T00:02:12.825Z,1.30
2022-09-15T00:04:40.843Z,1.30
2022-09-15T00:07:08.697Z,1.40
2022-09-15T00:09:36.542Z,1.65
2022-09-15T00:12:04.293Z,2.03
2022-09-15T00:14:33.469Z,1.98
2022-09-15T00:17:01.263Z,1.70
2022-09-15T00:19:28.963Z,1.80
2022-09-15T00:21:56.514Z,1.73
2022-09-15T00:24:24.566Z,2.10
2022-09-15T00:26:52.167Z,1.77
2022-09-15T00:29:19.970Z,1.80
2022-09-15T00:31:48.997Z,1.63
2022-09-15T00:34:16.650Z,1.90
2022-09-15T00:36:44.316Z,2.40
2022-09-15T00:39:12.257Z,2.13
2022-09-15T00:41:40.054Z,1.90
2022-09-15T00:44:27.509Z,2.28
2022-09-15T00:47:17.822Z,1.90
2022-09-15T00:49:46.501Z,1.73
2022-09-15T00:52:15.701Z,1.80
2022-09-15T00:54:49.326Z,2.13
2022-09-15T00:57:18.851Z,2.17
2022-09-15T00:59:47.309Z,2.10
2022-09-15T01:02:17.557Z,1.88
2022-09-15T01:04:45.347Z,2.53
2022-09-15T01:07:14.969Z,2.58
2022-09-15T01:09:50.166Z,2.63
2022-09-15T01:12:17.887Z,2.33
2022-09-15T01:14:45.458Z,2.28
2022-09-15T01:17:20.337Z,2.20
2022-09-15T01:19:59.974Z,2.05
2022-09-15T01:22:34.580Z,1.95
2022-09-15T01:25:07.936Z,2.13
2022-09-15T01:27:49.018Z,2.33
2022-09-15T01:30:18.319Z,1.90
2022-09-15T01:33:05.487Z,1.80
2022-09-15T01:35:36.648Z,1.67
2022-09-15T01:38:05.911Z,1.70
2022-09-15T01:40:36.213Z,1.40
2022-09-15T01:43:04.899Z,1.52
2022-09-15T01:45:35.089Z,1.70
2022-09-15T01:48:05.571Z,1.58
2022-09-15T01:50:36.523Z,1.48
2022-09-15T01:53:06.773Z,1.70
2022-09-15T01:55:38.007Z,1.63
2022-09-15T01:58:05.844Z,1.80
2022-09-15T02:00:36.999Z,1.75
2022-09-15T02:03:08.764Z,1.50
2022-09-15T02:05:40.928Z,1.48
2022-09-15T02:08:11.687Z,1.55
2022-09-15T02:10:42.046Z,1.65
2022-09-15T02:13:14.554Z,1.73
2022-09-15T02:15:47.974Z,1.75
2022-09-15T02:18:18.115Z,2.20
2022-09-15T02:20:49.329Z,2.25
2022-09-15T02:23:21.569Z,2.05
2022-09-15T02:25:51.601Z,1.85
2022-09-15T02:28:20.220Z,1.90
2022-09-15T02:30:49.924Z,1.80
2022-09-15T02:33:20.545Z,2.13
2022-09-15T02:35:48.573Z,2.08
2022-09-15T02:38:16.250Z,1.77
2022-09-15T02:40:44.621Z,2.30
2022-09-15T02:43:13.782Z,1.98
2022-09-15T02:45:41.722Z,2.00
2022-09-15T02:48:10.726Z,1.88
2022-09-15T02:50:38.566Z,2.42
2022-09-15T02:53:06.551Z,2.22
2022-09-15T02:58:20.486Z,2.00
2022-09-15T03:00:48.181Z,1.90
2022-09-15T03:03:18.473Z,2.03
2022-09-15T03:05:46.138Z,1.83
2022-09-15T03:08:14.028Z,1.73
2022-09-15T03:10:41.678Z,1.80
2022-09-15T03:13:09.259Z,1.75
2022-09-15T03:15:37.798Z,2.00
2022-09-15T03:18:05.601Z,1.67
2022-09-15T03:20:34.440Z,1.73
2022-09-15T03:23:03.271Z,1.83
2022-09-15T03:25:30.859Z,2.00
2022-09-15T03:27:58.557Z,1.70
2022-09-15T03:30:26.323Z,1.50
2022-09-15T03:32:53.977Z,1.67
2022-09-15T03:35:21.655Z,1.95
2022-09-15T03:37:51.423Z,2.03
2022-09-15T03:40:19.048Z,1.90
2022-09-15T03:42:47.551Z,1.73
2022-09-15T03:45:15.245Z,2.15
2022-09-15T03:47:42.793Z,1.70
2022-09-15T03:50:10.472Z,1.75
2022-09-15T03:52:38.317Z,1.73
2022-09-15T03:55:07.586Z,1.83
2022-09-15T03:57:35.170Z,1.70
2022-09-15T04:00:03.796Z,1.45
2022-09-15T04:02:32.006Z,1.58
2022-09-15T04:04:59.810Z,1.33
2022-09-15T04:07:27.401Z,1.52
2022-09-15T04:09:55.193Z,1.70
2022-09-15T04:12:24.109Z,1.70
2022-09-15T04:14:51.736Z,1.60
2022-09-15T04:17:20.177Z,1.80
2022-09-15T04:19:47.961Z,1.48
2022-09-15T04:22:18.024Z,1.60
2022-09-15T04:24:47.938Z,1.90
2022-09-15T04:27:15.686Z,1.77
2022-09-15T04:29:44.822Z,2.03
2022-09-15T04:32:12.463Z,2.17
2022-09-15T04:34:41.529Z,1.88
2022-09-15T04:37:09.569Z,2.20
2022-09-15T04:39:37.413Z,2.20
2022-09-15T04:42:07.760Z,1.88
2022-09-15T04:44:35.351Z,1.92
2022-09-15T04:47:04.424Z,1.90
2022-09-15T04:49:32.160Z,2.10
2022-09-15T04:51:59.781Z,2.30
2022-09-15T04:54:27.426Z,1.98
2022-09-15T04:56:55.315Z,2.65
2022-09-15T04:59:23.011Z,2.38
2022-09-15T05:01:54.395Z,2.58
2022-09-15T05:04:23.366Z,2.35
2022-09-15T05:06:51.014Z,2.78
2022-09-15T05:09:18.805Z,2.65
2022-09-15T05:11:46.436Z,2.70
2022-09-15T05:14:14.070Z,2.72
2022-09-15T05:16:42.769Z,2.40
2022-09-15T05:19:10.960Z,2.28
2022-09-15T05:21:40.056Z,2.35
2022-09-15T05:24:07.821Z,2.03
2022-09-15T05:26:35.484Z,2.20
2022-09-15T05:29:03.304Z,2.42
2022-09-15T05:31:31.776Z,2.30
2022-09-15T05:34:01.198Z,2.30
2022-09-15T05:36:28.986Z,2.35
2022-09-15T05:38:57.951Z,1.92
2022-09-15T05:41:26.026Z,1.90
2022-09-15T05:43:54.659Z,2.10
2022-09-15T05:46:22.645Z,2.00
2022-09-15T05:48:50.341Z,2.17
2022-09-15T05:51:17.931Z,1.98
2022-09-15T05:53:45.616Z,2.10
2022-09-15T05:56:14.996Z,2.35
2022-09-15T05:58:44.485Z,2.00
2022-09-15T06:01:14.135Z,1.88
2022-09-15T06:03:41.923Z,2.00
2022-09-15T06:06:09.555Z,1.88
2022-09-15T06:08:39.670Z,1.55
2022-09-15T06:11:11.488Z,1.77
2022-09-15T06:13:40.854Z,1.70
2022-09-15T06:16:09.488Z,1.52
2022-09-15T06:18:37.767Z,1.80
2022-09-15T06:21:07.459Z,1.70
2022-09-15T06:23:35.144Z,1.90
2022-09-15T06:26:06.694Z,1.80
2022-09-15T06:28:34.574Z,1.95
2022-09-15T06:31:03.494Z,1.50
2022-09-15T06:33:31.341Z,1.90
2022-09-15T06:36:01.195Z,1.52
2022-09-15T06:38:28.981Z,1.80
2022-09-15T06:40:57.414Z,1.30
2022-09-15T06:43:25.830Z,1.42
2022-09-15T06:45:53.666Z,1.65
2022-09-15T06:48:25.264Z,1.85
2022-09-15T06:50:54.781Z,1.50
2022-09-15T06:53:22.403Z,1.42
2022-09-15T06:55:50.227Z,1.58
2022-09-15T06:58:17.921Z,1.70
2022-09-15T07:00:45.699Z,1.70
2022-09-15T07:03:13.457Z,1.77
2022-09-15T07:05:44.161Z,1.88
2022-09-15T07:08:11.767Z,1.80
2022-09-15T07:10:39.575Z,1.60
2022-09-15T07:13:07.139Z,1.48
2022-09-15T07:15:35.241Z,1.40
2022-09-15T07:18:02.861Z,1.40
2022-09-15T07:20:30.546Z,1.38
2022-09-15T07:22:59.471Z,1.55
2022-09-15T07:25:27.074Z,1.38
2022-09-15T07:27:54.663Z,1.40
2022-09-15T07:30:22.533Z,1.42
2022-09-15T07:32:50.193Z,1.45
2022-09-15T07:35:18.622Z,1.40
2022-09-15T07:37:46.231Z,1.30
2022-09-15T07:40:15.318Z,1.33
2022-09-15T07:42:43.178Z,1.15
2022-09-15T07:45:11.541Z,1.42
2022-09-15T07:47:39.503Z,1.27
2022-09-15T07:50:07.591Z,1.17
2022-09-15T07:52:35.181Z,1.20
2022-09-15T07:55:02.753Z,1.42
2022-09-15T07:57:32.157Z,1.15
2022-09-15T07:59:59.891Z,1.38
2022-09-15T08:02:27.597Z,1.65
2022-09-15T08:04:55.452Z,2.03
2022-09-15T08:07:23.091Z,1.80
2022-09-15T08:09:50.942Z,1.60
2022-09-15T08:12:18.939Z,2.28
2022-09-15T08:14:48.104Z,2.08
2022-09-15T08:17:15.731Z,1.85
2022-09-15T08:19:43.337Z,1.70
2022-09-15T08:22:11.032Z,2.10
2022-09-15T08:24:38.774Z,2.10
2022-09-15T08:27:06.466Z,1.42
2022-09-15T08:29:34.301Z,1.40
2022-09-15T08:32:03.318Z,1.60
2022-09-15T08:34:30.994Z,1.63
2022-09-15T08:36:58.565Z,1.60
2022-09-15T08:39:26.499Z,1.77
2022-09-15T08:41:54.699Z,1.63
2022-09-15T08:44:24.784Z,1.92
2022-09-15T08:46:54.899Z,1.30
2022-09-15T08:49:47.360Z,1.88
2022-09-15T08:52:16.874Z,1.75
2022-09-15T08:54:44.750Z,1.50
2022-09-15T08:57:15.254Z,2.15
2022-09-15T08:59:43.280Z,1.83
2022-09-15T09:02:22.400Z,1.80
2022-09-15T09:04:58.827Z,1.65
2022-09-15T09:07:34.116Z,1.73
2022-09-15T09:10:06.874Z,1.80
2022-09-15T09:12:42.302Z,1.90
2022-09-15T09:15:17.049Z,2.15
2022-09-15T09:17:54.893Z,2.58
2022-09-15T09:20:31.945Z,2.00
2022-09-15T09:23:00.960Z,2.42
2022-09-15T09:25:28.741Z,1.92
2022-09-15T09:27:58.127Z,2.20
2022-09-15T09:30:44.592Z,1.88
2022-09-15T09:33:16.568Z,1.75
2022-09-15T09:35:47.309Z,1.92
2022-09-15T09:38:18.809Z,2.63
2022-09-15T09:40:46.812Z,3.00
2022-09-15T09:43:14.590Z,3.30
2022-09-15T09:45:42.636Z,3.10
2022-09-15T09:48:14.740Z,3.15
2022-09-15T09:50:44.044Z,2.90
2022-09-15T09:53:24.527Z,2.70
2022-09-15T09:55:53.161Z,2.50
2022-09-15T09:58:22.477Z,2.00
2022-09-15T10:00:50.926Z,1.90
2022-09-15T10:03:19.720Z,1.70
2022-09-15T10:06:01.052Z,1.60
2022-09-15T10:08:30.084Z,1.50
2022-09-15T10:11:01.497Z,1.63
2022-09-15T10:13:29.170Z,1.58
2022-09-15T10:15:59.357Z,1.52
2022-09-15T10:18:29.938Z,1.45
2022-09-15T10:20:58.055Z,1.58
2022-09-15T10:23:26.358Z,1.63
2022-09-15T10:25:59.406Z,1.38
2022-09-15T10:28:28.239Z,1.60
2022-09-15T10:30:59.734Z,1.25
2022-09-15T10:33:28.036Z,1.55
2022-09-15T10:35:56.141Z,1.77
2022-09-15T10:38:30.994Z,1.52
2022-09-15T10:41:03.325Z,1.80
2022-09-15T10:43:34.836Z,1.60
2022-09-15T10:46:04.864Z,1.60
2022-09-15T10:48:39.014Z,1.50
2022-09-15T10:51:15.919Z,1.80
2022-09-15T10:53:59.468Z,1.83
2022-09-15T10:56:30.468Z,1.80
2022-09-15T10:59:05.658Z,1.70
2022-09-15T11:01:38.894Z,2.20
2022-09-15T11:04:13.068Z,1.98
2022-09-15T11:06:44.309Z,1.88
2022-09-15T11:09:15.243Z,1.80
2022-09-15T11:11:50.916Z,1.77
2022-09-15T11:14:27.549Z,1.70
2022-09-15T11:17:04.795Z,1.77
2022-09-15T11:19:38.317Z,1.83
2022-09-15T11:22:09.301Z,2.05
2022-09-15T11:24:41.077Z,1.90
2022-09-15T11:27:13.824Z,1.95
2022-09-15T11:29:52.387Z,1.90
2022-09-15T11:32:22.096Z,2.30
2022-09-15T11:34:52.228Z,2.17
2022-09-15T11:37:22.149Z,2.00
2022-09-15T11:39:51.280Z,2.35
2022-09-15T11:42:21.421Z,2.05
2022-09-15T11:44:49.711Z,1.80
2022-09-15T11:47:23.258Z,2.60
2022-09-15T11:49:52.126Z,2.10
2022-09-15T11:52:26.808Z,2.55
2022-09-15T11:54:58.588Z,3.13
2022-09-15T11:57:31.474Z,2.88
2022-09-15T12:00:01.808Z,2.25
2022-09-15T12:02:31.192Z,2.33
2022-09-15T12:05:08.587Z,1.85
2022-09-15T12:07:40.304Z,1.55
2022-09-15T12:10:14.867Z,1.30
2022-09-15T12:12:44.678Z,1.60
2022-09-15T12:15:15.231Z,1.65
2022-09-15T12:17:47.204Z,1.45
2022-09-15T12:20:18.284Z,1.30
2022-09-15T12:22:47.870Z,1.40
2022-09-15T12:25:17.544Z,1.20
2022-09-15T12:28:07.336Z,1.30
2022-09-15T12:30:39.586Z,1.17
2022-09-15T12:33:22.109Z,1.35
2022-09-15T12:35:49.730Z,1.25
2022-09-15T12:38:17.393Z,1.10
2022-09-15T12:40:44.981Z,1.00
2022-09-15T12:43:23.626Z,1.48
2022-09-15T12:45:56.312Z,1.00
2022-09-15T12:48:25.881Z,1.40
2022-09-15T12:50:54.551Z,1.23
2022-09-15T12:53:22.854Z,1.83
2022-09-15T12:55:51.633Z,1.70
2022-09-15T12:58:21.339Z,1.40
2022-09-15T13:01:17.037Z,1.88
2022-09-15T13:03:50.916Z,1.58
2022-09-15T13:06:19.986Z,1.48
2022-09-15T13:08:49.739Z,1.08
2022-09-15T13:11:20.210Z,1.33
2022-09-15T13:13:51.356Z,1.27
2022-09-15T13:16:23.218Z,1.08
2022-09-15T13:18:56.041Z,1.20
2022-09-15T13:21:23.942Z,1.20
2022-09-15T13:23:53.089Z,1.08
2022-09-15T13:26:24.127Z,1.02
2022-09-15T13:28:55.627Z,1.00
2022-09-15T13:31:35.588Z,1.00
2022-09-15T13:40:03.956Z,0.80
2022-09-15T13:42:37.592Z,0.80
2022-09-15T13:45:16.565Z,0.90
2022-09-15T13:47:53.386Z,1.02
2022-09-15T13:50:24.662Z,0.93
2022-09-15T13:53:00.511Z,0.82
2022-09-15T13:55:29.229Z,1.10
2022-09-15T14:00:48.343Z,0.95
2022-09-15T14:03:19.998Z,0.95
2022-09-15T14:05:47.651Z,1.00
2022-09-15T14:08:16.756Z,1.10
2022-09-15T14:10:46.739Z,1.20
2022-09-15T14:13:15.646Z,1.00
2022-09-15T14:15:56.491Z,1.20
2022-09-15T14:18:25.444Z,1.02
2022-09-15T14:21:01.883Z,1.25
2022-09-15T14:23:30.308Z,1.33
2022-09-15T14:26:00.468Z,1.25
2022-09-15T14:28:31.553Z,1.08
2022-09-15T14:31:00.488Z,0.88
2022-09-15T14:33:37.047Z,1.00
2022-09-15T14:36:12.871Z,1.08
2022-09-15T14:38:41.154Z,1.05
2022-09-15T14:41:18.957Z,1.45
2022-09-15T14:43:47.426Z,1.40
2022-09-15T14:46:17.394Z,1.13
2022-09-15T14:48:46.500Z,0.98
2022-09-15T14:51:17.792Z,1.02
2022-09-15T14:53:45.942Z,1.20
2022-09-15T14:56:17.490Z,1.00
2022-09-15T14:58:47.287Z,1.00
2022-09-15T15:01:16.514Z,1.00
2022-09-15T15:03:47.518Z,1.13
2022-09-15T15:06:33.317Z,1.00
2022-09-15T15:09:04.040Z,1.10
2022-09-15T15:11:32.720Z,1.00
2022-09-15T15:14:00.700Z,1.13
2022-09-15T15:16:29.607Z,1.15
2022-09-15T15:18:59.200Z,1.10
2022-09-15T15:21:37.696Z,1.20
2022-09-15T15:24:09.574Z,1.02
2022-09-15T15:26:38.304Z,0.88
2022-09-15T15:29:08.365Z,1.00
2022-09-15T15:31:39.913Z,1.20
2022-09-15T15:34:23.370Z,0.95
2022-09-15T15:36:51.248Z,1.25
2022-09-15T15:39:24.757Z,1.88
2022-09-15T15:42:00.167Z,1.30
2022-09-15T15:44:28.746Z,1.30
2022-09-15T15:46:57.091Z,1.20
2022-09-15T15:49:27.336Z,1.00
2022-09-15T15:51:55.846Z,1.10
2022-09-15T15:54:23.689Z,1.65
2022-09-15T15:56:51.386Z,1.38
2022-09-15T15:59:19.061Z,0.98
2022-09-15T16:01:47.860Z,1.38
2022-09-15T16:04:15.763Z,1.10
2022-09-15T16:06:45.901Z,1.17
2022-09-15T16:09:14.364Z,1.23
2022-09-15T16:11:45.269Z,1.35
2022-09-15T16:14:14.083Z,1.33
2022-09-15T16:16:42.406Z,1.00
2022-09-15T16:19:11.126Z,1.23
2022-09-15T16:21:40.201Z,1.33
2022-09-15T16:24:13.773Z,0.90
2022-09-15T16:26:41.807Z,1.20
2022-09-15T16:29:09.743Z,0.88
2022-09-15T16:31:37.472Z,1.00
2022-09-15T16:34:05.205Z,0.90
2022-09-15T16:36:34.294Z,1.30
2022-09-15T16:39:01.888Z,1.00
2022-09-15T16:41:30.829Z,0.98
2022-09-15T16:44:02.487Z,1.02
2022-09-15T16:46:30.193Z,0.80
2022-09-15T16:48:57.888Z,1.50
2022-09-15T16:51:30.909Z,1.17
2022-09-15T16:53:59.475Z,1.00
2022-09-15T16:56:27.228Z,0.90
2022-09-15T16:59:00.155Z,1.17
2022-09-15T17:01:28.513Z,0.93
2022-09-15T17:03:56.106Z,1.15
2022-09-15T17:06:23.758Z,1.10
2022-09-15T17:08:51.891Z,1.15
2022-09-15T17:11:22.095Z,1.17
2022-09-15T17:13:49.750Z,1.17
2022-09-15T17:16:20.196Z,1.15
2022-09-15T17:18:48.368Z,1.17
2022-09-15T17:21:16.900Z,1.27
2022-09-15T17:23:46.179Z,1.00
2022-09-15T17:26:14.758Z,1.20
2022-09-15T17:28:42.831Z,1.20
2022-09-15T17:31:14.234Z,1.05
2022-09-15T17:33:43.515Z,1.10
2022-09-15T17:36:11.831Z,1.10
2022-09-15T17:38:41.492Z,0.98
2022-09-15T17:41:13.538Z,0.90
2022-09-15T17:43:41.366Z,1.25
2022-09-15T17:46:09.319Z,1.20
2022-09-15T17:48:38.782Z,1.00
2022-09-15T17:51:08.267Z,1.02
2022-09-15T17:53:36.122Z,1.00
2022-09-15T17:56:03.780Z,1.00
2022-09-15T17:58:31.863Z,1.13
2022-09-15T18:01:00.273Z,1.10
2022-09-15T18:03:28.649Z,1.17
2022-09-15T18:05:56.917Z,1.02
2022-09-15T18:08:26.251Z,1.33
2022-09-15T18:10:54.415Z,1.20
2022-09-15T18:13:23.379Z,0.95
2022-09-15T18:15:51.146Z,1.27
2022-09-15T18:18:19.742Z,1.00
2022-09-15T18:20:47.858Z,1.50
2022-09-15T18:23:16.469Z,1.20
2022-09-15T18:25:46.886Z,1.52
2022-09-15T18:28:15.277Z,1.40
2022-09-15T18:30:43.903Z,1.20
2022-09-15T18:33:14.254Z,1.20
2022-09-15T18:35:41.946Z,1.35
2022-09-15T18:38:10.129Z,1.20
2022-09-15T18:40:39.396Z,1.30
2022-09-15T18:43:08.264Z,1.33
2022-09-15T18:45:36.205Z,1.17
2022-09-15T18:48:03.863Z,2.03
2022-09-15T18:50:32.044Z,1.30
2022-09-15T18:52:59.819Z,1.50
2022-09-15T18:55:27.971Z,1.33
2022-09-15T18:58:00.083Z,1.20
2022-09-15T19:00:29.960Z,1.42
2022-09-15T19:02:59.098Z,1.05
2022-09-15T19:05:27.296Z,0.98
2022-09-15T19:07:55.259Z,1.17
2022-09-15T19:10:23.506Z,1.10
2022-09-15T19:12:51.244Z,1.42
2022-09-15T19:15:23.694Z,1.25
2022-09-15T19:17:52.911Z,1.17
2022-09-15T19:20:20.524Z,1.05
2022-09-15T19:22:48.371Z,0.98
2022-09-15T19:25:16.016Z,1.25
2022-09-15T19:27:43.986Z,0.95
2022-09-15T19:30:12.314Z,1.17
2022-09-15T19:32:40.780Z,1.02
2022-09-15T19:35:11.249Z,1.00
2022-09-15T19:37:42.025Z,1.23
2022-09-15T19:40:11.382Z,1.00
2022-09-15T19:42:39.646Z,1.05
2022-09-15T19:45:07.597Z,1.00
2022-09-15T19:47:35.610Z,0.93
2022-09-15T19:50:03.519Z,0.82
2022-09-15T19:52:32.543Z,0.90
2022-09-15T19:55:00.187Z,0.82
2022-09-15T19:57:27.898Z,0.93
2022-09-15T19:59:55.481Z,0.98
2022-09-15T20:02:23.444Z,0.90
2022-09-15T20:04:51.085Z,0.80
2022-09-15T20:07:18.821Z,0.82
2022-09-15T20:09:48.357Z,0.90
2022-09-15T20:12:16.147Z,1.05
2022-09-15T20:14:43.802Z,0.98
2022-09-15T20:17:11.536Z,0.90
2022-09-15T20:19:39.222Z,0.80
2022-09-15T20:22:06.844Z,0.90
2022-09-15T20:24:34.421Z,1.00
2022-09-15T20:27:03.454Z,0.80
2022-09-15T20:29:31.076Z,0.85
2022-09-15T20:31:58.773Z,0.70
2022-09-15T20:34:26.425Z,1.10
2022-09-15T20:36:54.350Z,0.60
2022-09-15T20:39:22.761Z,1.02
2022-09-15T20:41:50.382Z,0.55
2022-09-15T20:44:19.260Z,0.70
2022-09-15T20:46:46.984Z,0.60
2022-09-15T20:49:14.604Z,0.60
2022-09-15T20:51:42.263Z,0.90
2022-09-15T20:54:10.834Z,0.70
2022-09-15T20:56:38.660Z,0.70
2022-09-15T20:59:10.165Z,0.77
2022-09-15T21:01:39.772Z,0.70
2022-09-15T21:04:08.364Z,0.65
2022-09-15T21:06:36.497Z,0.60
2022-09-15T21:09:04.180Z,0.93
2022-09-15T21:11:31.810Z,0.77
2022-09-15T21:13:59.688Z,0.80
2022-09-15T21:16:29.092Z,0.60
2022-09-15T21:18:58.710Z,0.60
2022-09-15T21:21:27.344Z,0.50
2022-09-15T21:23:56.328Z,0.60
2022-09-15T21:26:25.096Z,0.50
2022-09-15T21:28:53.332Z,0.57
2022-09-15T21:31:22.073Z,0.65
2022-09-15T21:33:50.557Z,0.50
2022-09-15T21:36:22.109Z,0.70
2022-09-15T21:38:50.558Z,0.70
2022-09-15T21:41:20.768Z,0.50
2022-09-15T21:43:48.937Z,0.57
2022-09-15T21:46:18.198Z,0.68
2022-09-15T21:48:47.036Z,0.50
2022-09-15T21:51:15.541Z,0.55
2022-09-15T21:53:44.472Z,0.70
2022-09-15T21:56:12.651Z,0.68
2022-09-15T21:58:42.954Z,0.70
2022-09-15T22:01:12.429Z,0.70
2022-09-15T22:03:42.431Z,0.60
2022-09-15T22:06:11.020Z,0.90
2022-09-15T22:08:39.906Z,0.75
2022-09-15T22:11:09.574Z,0.70
2022-09-15T22:13:38.753Z,0.60
2022-09-15T22:16:07.633Z,0.88
2022-09-15T22:18:36.421Z,0.98
2022-09-15T22:21:05.118Z,0.90
2022-09-15T22:23:32.754Z,0.77
2022-09-15T22:26:02.338Z,0.70
2022-09-15T22:28:31.354Z,0.80
2022-09-15T22:30:59.713Z,0.80
2022-09-15T22:33:27.677Z,0.98
2022-09-15T22:35:56.831Z,0.88
2022-09-15T22:38:25.016Z,0.60
2022-09-15T22:40:52.846Z,0.70
2022-09-15T22:43:20.491Z,0.70
2022-09-15T22:45:49.493Z,0.60
2022-09-15T22:48:17.220Z,0.60
2022-09-15T22:50:45.071Z,0.60
2022-09-15T22:53:13.176Z,0.80
2022-09-15T22:55:40.836Z,0.60
2022-09-15T22:58:08.455Z,0.50
2022-09-15T23:00:38.226Z,0.55
2022-09-15T23:03:07.503Z,0.80
2022-09-15T23:05:35.127Z,0.80
2022-09-15T23:08:04.325Z,0.65
2022-09-15T23:10:32.677Z,0.50
2022-09-15T23:13:00.448Z,0.63
2022-09-15T23:15:28.811Z,0.60
2022-09-15T23:17:56.409Z,0.70
2022-09-15T23:20:25.343Z,0.70
2022-09-15T23:22:53.436Z,0.70
2022-09-15T23:25:21.020Z,0.73
2022-09-15T23:27:48.657Z,0.60
2022-09-15T23:30:16.268Z,0.63
2022-09-15T23:32:43.927Z,0.80
2022-09-15T23:35:11.701Z,0.50
2022-09-15T23:37:40.677Z,0.60
2022-09-15T23:40:08.512Z,0.73
2022-09-15T23:42:36.143Z,0.70
2022-09-15T23:45:03.806Z,0.90
2022-09-15T23:47:31.408Z,0.70
2022-09-15T23:50:00.267Z,0.80
2022-09-15T23:52:27.859Z,0.82
2022-09-15T23:54:56.744Z,1.00
2022-09-15T23:57:24.352Z,0.70
2022-09-15T23:59:52.401Z,0.68
